Time;durP1;ratioP1;P1;durP2;ratioP2;P2;SDS_P1;SDS_P2;PMS_P1;PMS_P2;Temp;Humidity;BMP_temperature;BMP_pressure;BME280_temperature;BME280_humidity;BME280_pressure;Samples;Min_cycle;Max_cycle;Signal;HPM_P1;HPM_P2
2022/03/15 00:00:32;;;;;;;;;69.80;55.40;24.90;99.90;;;;;;5020037;28;8763;-62
2022/03/15 00:02:58;;;;;;;;;61.20;49.40;25.00;99.90;;;;;;5020369;28;8916;-62
2022/03/15 00:05:25;;;;;;;;;66.20;51.20;25.00;99.90;;;;;;5020003;28;8771;-62
2022/03/15 00:07:52;;;;;;;;;63.00;49.25;25.00;99.90;;;;;;5020115;28;9420;-61
2022/03/15 00:10:19;;;;;;;;;68.50;54.00;25.00;99.90;;;;;;5020543;28;8837;-61
2022/03/15 00:12:46;;;;;;;;;68.00;54.20;24.90;99.90;;;;;;5019949;28;9365;-62
2022/03/15 00:15:13;;;;;;;;;68.20;54.00;25.00;99.90;;;;;;5020113;28;8845;-61
2022/03/15 00:17:44;;;;;;;;;65.40;53.60;25.00;99.90;;;;;;5019570;28;8759;-61
2022/03/15 00:20:14;;;;;;;;;62.75;51.25;25.00;99.90;;;;;;5019701;28;9384;-62
2022/03/15 00:22:42;;;;;;;;;69.20;56.20;25.00;99.90;;;;;;5034616;28;8750;-62
2022/03/15 00:25:10;;;;;;;;;73.40;62.40;25.10;99.90;;;;;;5020225;28;8873;-62
2022/03/15 00:27:37;;;;;;;;;68.00;56.20;25.10;99.90;;;;;;5019014;28;9080;-62
2022/03/15 00:30:05;;;;;;;;;75.80;59.60;25.10;99.90;;;;;;5034078;28;8723;-62
2022/03/15 00:32:33;;;;;;;;;71.40;56.20;25.10;99.90;;;;;;5019031;28;9443;-61
2022/03/15 00:34:59;;;;;;;;;68.80;55.20;25.20;99.90;;;;;;5018246;28;9381;-62
2022/03/15 00:37:26;;;;;;;;;71.40;58.20;25.20;99.90;;;;;;5017514;28;8818;-61
2022/03/15 00:39:53;;;;;;;;;72.20;57.80;25.30;99.90;;;;;;5016800;28;9028;-62
2022/03/15 00:42:20;;;;;;;;;70.60;57.40;25.40;99.90;;;;;;5016747;28;8794;-61
2022/03/15 00:44:46;;;;;;;;;72.60;56.80;25.30;99.90;;;;;;5017623;28;8860;-62
2022/03/15 00:47:13;;;;;;;;;69.00;57.60;25.30;99.90;;;;;;5032371;28;8763;-61
2022/03/15 00:49:39;;;;;;;;;73.20;61.20;25.60;99.90;;;;;;5031643;28;8874;-60
2022/03/15 00:52:06;;;;;;;;;73.40;60.80;25.80;99.90;;;;;;5031926;28;8786;-64
2022/03/15 00:54:33;;;;;;;;;69.40;57.80;25.80;99.90;;;;;;5017990;28;8778;-64
2022/03/15 00:56:59;;;;;;;;;72.40;61.60;26.10;99.90;;;;;;5017083;28;8826;-64
2022/03/15 00:59:26;;;;;;;;;70.80;59.00;26.10;99.90;;;;;;5031953;28;8775;-64
2022/03/15 01:01:53;;;;;;;;;72.80;57.40;25.90;99.90;;;;;;5031964;28;8787;-65
2022/03/15 01:04:19;;;;;;;;;66.40;52.80;25.80;99.90;;;;;;5033019;28;8795;-62
2022/03/15 01:06:46;;;;;;;;;68.20;52.80;25.90;99.90;;;;;;5015803;28;8755;-64
2022/03/15 01:09:13;;;;;;;;;65.60;52.60;26.20;99.90;;;;;;5018014;28;8837;-63
2022/03/15 01:11:40;;;;;;;;;63.40;51.40;26.40;99.90;;;;;;5017642;28;8770;-64
2022/03/15 01:14:07;;;;;;;;;62.75;49.50;26.10;99.90;;;;;;5032586;28;8799;-64
2022/03/15 01:16:34;;;;;;;;;66.00;53.00;26.00;99.90;;;;;;5017608;28;8791;-65
2022/03/15 01:19:00;;;;;;;;;63.00;51.00;26.00;99.90;;;;;;5018598;28;8751;-64
2022/03/15 01:21:28;;;;;;;;;62.25;49.75;26.20;99.90;;;;;;5017561;28;8833;-64
2022/03/15 01:23:54;;;;;;;;;63.00;51.50;26.40;99.90;;;;;;5017640;28;8766;-64
2022/03/15 01:26:21;;;;;;;;;60.00;48.80;26.30;99.90;;;;;;5017558;28;8778;-65
2022/03/15 01:28:47;;;;;;;;;55.00;46.20;26.10;99.90;;;;;;5001490;28;8788;-64
2022/03/15 01:31:14;;;;;;;;;58.75;46.50;26.20;99.90;;;;;;4998691;28;8754;-63
2022/03/15 01:33:41;;;;;;;;;63.20;47.00;26.50;99.90;;;;;;4996132;28;8832;-64
2022/03/15 01:36:07;;;;;;;;;62.50;48.75;26.60;99.90;;;;;;4997059;28;8860;-63
2022/03/15 01:38:35;;;;;;;;;63.25;50.50;26.70;99.90;;;;;;4996979;28;8874;-63
2022/03/15 01:41:01;;;;;;;;;66.25;49.50;26.80;99.90;;;;;;4996337;28;8869;-63
2022/03/15 01:43:28;;;;;;;;;56.00;45.25;26.70;99.90;;;;;;5009428;28;9027;-63
2022/03/15 01:45:55;;;;;;;;;62.75;48.75;26.80;99.90;;;;;;5032366;28;8778;-64
2022/03/15 01:48:21;;;;;;;;;59.75;48.50;26.90;99.90;;;;;;5016965;28;8739;-64
2022/03/15 01:50:48;;;;;;;;;59.50;47.25;26.90;99.90;;;;;;5032754;28;8776;-64
2022/03/15 01:53:15;;;;;;;;;61.00;47.00;27.00;99.90;;;;;;5015615;28;8795;-64
2022/03/15 01:55:42;;;;;;;;;59.25;46.50;27.10;99.90;;;;;;5032023;28;8761;-65
2022/03/15 01:58:09;;;;;;;;;61.00;47.75;27.20;99.90;;;;;;5016269;28;8786;-64
2022/03/15 02:00:35;;;;;;;;;54.75;44.25;27.20;99.90;;;;;;5031837;28;8773;-64
2022/03/15 02:03:03;;;;;;;;;59.50;46.50;27.40;99.90;;;;;;5032490;28;8758;-64
2022/03/15 02:05:30;;;;;;;;;57.00;47.25;27.60;99.90;;;;;;5017060;28;8751;-65
2022/03/15 02:07:57;;;;;;;;;63.25;49.00;27.80;99.90;;;;;;5016450;28;8791;-64
2022/03/15 02:10:24;;;;;;;;;61.25;48.50;27.90;99.90;;;;;;5016761;28;8727;-63
2022/03/15 02:12:50;;;;;;;;;56.25;45.75;27.90;99.90;;;;;;5032743;28;8759;-65
2022/03/15 02:15:17;;;;;;;;;61.40;49.00;27.80;99.90;;;;;;5016349;28;8742;-63
2022/03/15 02:17:44;;;;;;;;;61.75;49.50;27.90;99.90;;;;;;5015804;28;8759;-64
2022/03/15 02:20:11;;;;;;;;;63.50;48.25;27.90;99.90;;;;;;5032217;28;8762;-65
2022/03/15 02:22:37;;;;;;;;;52.75;43.75;27.90;99.90;;;;;;5014601;28;8755;-65
2022/03/15 02:25:04;;;;;;;;;58.75;46.00;28.00;99.90;;;;;;5017263;28;8774;-64
2022/03/15 02:27:31;;;;;;;;;61.00;49.00;28.00;99.90;;;;;;5014668;28;8828;-64
2022/03/15 02:29:58;;;;;;;;;60.25;48.50;27.90;99.90;;;;;;5016400;28;8767;-65
2022/03/15 02:32:25;;;;;;;;;58.50;47.25;28.10;99.90;;;;;;5031616;28;8993;-64
2022/03/15 02:34:51;;;;;;;;;63.00;49.25;28.20;99.90;;;;;;5016707;28;8751;-62
2022/03/15 02:37:18;;;;;;;;;58.50;48.25;28.10;99.90;;;;;;5016758;28;8811;-62
2022/03/15 02:39:45;;;;;;;;;60.75;46.50;28.20;99.90;;;;;;5015959;28;8783;-64
2022/03/15 02:42:11;;;;;;;;;59.50;45.75;28.30;99.90;;;;;;5016677;28;8885;-64
2022/03/15 02:44:38;;;;;;;;;58.75;47.00;28.40;99.90;;;;;;5008073;28;8882;-64
2022/03/15 02:47:05;;;;;;;;;62.75;48.25;28.70;99.90;;;;;;5015630;28;8775;-63
2022/03/15 02:49:31;;;;;;;;;61.00;47.25;28.70;99.90;;;;;;5012284;28;9400;-64
2022/03/15 02:51:58;;;;;;;;;61.75;47.25;28.70;99.90;;;;;;5015550;28;8751;-64
2022/03/15 02:54:24;;;;;;;;;54.00;43.75;28.80;99.90;;;;;;5014676;28;8887;-63
2022/03/15 02:56:52;;;;;;;;;63.50;49.50;28.80;99.90;;;;;;5016163;28;8834;-63
2022/03/15 02:59:18;;;;;;;;;60.00;46.75;28.60;99.90;;;;;;5013489;28;9432;-62
2022/03/15 03:01:45;;;;;;;;;57.75;46.00;28.60;99.90;;;;;;5015951;28;8847;-64
2022/03/15 03:04:12;;;;;;;;;61.25;45.00;28.60;99.90;;;;;;5016627;28;8821;-65
2022/03/15 03:06:41;;;;;;;;;59.25;47.00;28.90;99.90;;;;;;5016103;28;8767;-64
2022/03/15 03:09:08;;;;;;;;;60.50;47.75;29.20;99.90;;;;;;5016536;28;9445;-64
2022/03/15 03:11:34;;;;;;;;;54.50;43.50;29.30;99.90;;;;;;5015883;28;8791;-64
2022/03/15 03:14:02;;;;;;;;;58.75;46.00;29.30;99.90;;;;;;5031119;28;8786;-63
2022/03/15 03:16:29;;;;;;;;;60.50;45.75;29.20;99.90;;;;;;5014775;28;8853;-62
2022/03/15 03:18:58;;;;;;;;;61.75;47.50;29.20;99.90;;;;;;5032230;28;8763;-63
2022/03/15 03:21:26;;;;;;;;;57.25;45.25;29.20;99.90;;;;;;5030782;28;8771;-63
2022/03/15 03:23:53;;;;;;;;;56.00;45.25;29.40;99.90;;;;;;5031707;28;8774;-64
2022/03/15 03:26:24;;;;;;;;;60.50;46.75;29.40;99.90;;;;;;5016779;28;8797;-63
2022/03/15 03:28:51;;;;;;;;;58.25;45.50;29.40;99.90;;;;;;5016006;28;8797;-63
2022/03/15 03:31:18;;;;;;;;;58.75;46.50;29.40;99.90;;;;;;4994928;28;8903;-63
2022/03/15 03:33:45;;;;;;;;;61.50;47.75;29.60;99.90;;;;;;4996990;28;9384;-63
2022/03/15 03:36:11;;;;;;;;;49.50;40.00;29.60;99.90;;;;;;5000248;28;8844;-63
2022/03/15 03:38:38;;;;;;;;;54.25;45.00;29.90;99.90;;;;;;5002077;28;8793;-64
2022/03/15 03:41:05;;;;;;;;;57.75;46.25;30.40;99.90;;;;;;5000051;28;9469;-65
2022/03/15 03:43:34;;;;;;;;;51.50;42.50;30.50;99.90;;;;;;4979450;28;8738;-62
2022/03/15 03:46:02;;;;;;;;;54.50;43.75;30.50;99.90;;;;;;5021153;28;8763;-62
2022/03/15 03:48:28;;;;;;;;;54.75;44.00;30.30;99.90;;;;;;5020803;28;8761;-63
2022/03/15 03:50:55;;;;;;;;;52.25;41.75;30.20;99.90;;;;;;5035470;28;8893;-62
2022/03/15 03:53:22;;;;;;;;;57.00;46.00;30.50;99.90;;;;;;5021101;28;8750;-61
2022/03/15 03:55:49;;;;;;;;;57.00;43.50;30.70;99.90;;;;;;5020802;28;8894;-62
2022/03/15 03:58:16;;;;;;;;;56.75;45.00;31.00;99.90;;;;;;5019064;28;8833;-62
2022/03/15 04:00:43;;;;;;;;;57.00;43.75;31.00;99.90;;;;;;5020418;28;8767;-61
2022/03/15 04:03:10;;;;;;;;;55.00;44.75;31.20;99.90;;;;;;5037777;28;8783;-63
2022/03/15 04:05:38;;;;;;;;;53.75;44.50;31.00;99.90;;;;;;5036814;28;8792;-61
2022/03/15 04:08:05;;;;;;;;;51.75;41.75;31.20;99.90;;;;;;5020025;28;8913;-60
2022/03/15 04:10:32;;;;;;;;;55.00;45.00;31.20;99.90;;;;;;5020507;28;9395;-60
2022/03/15 04:12:59;;;;;;;;;56.75;44.50;31.40;99.90;;;;;;5021553;28;8743;-62
2022/03/15 04:15:26;;;;;;;;;51.50;42.50;31.30;99.90;;;;;;5020788;28;8781;-61
2022/03/15 04:17:53;;;;;;;;;55.50;42.25;31.40;99.90;;;;;;5036031;28;8875;-62
2022/03/15 04:20:20;;;;;;;;;48.00;40.75;31.40;99.90;;;;;;5020544;28;8770;-62
2022/03/15 04:22:47;;;;;;;;;57.25;45.50;31.40;99.90;;;;;;5017520;28;8763;-62
2022/03/15 04:25:14;;;;;;;;;54.00;43.25;31.60;99.90;;;;;;5019465;28;8759;-61
2022/03/15 04:27:40;;;;;;;;;54.25;44.50;31.60;99.90;;;;;;5018209;28;9452;-61
2022/03/15 04:30:07;;;;;;;;;55.75;43.25;31.70;99.90;;;;;;5034288;28;8767;-61
2022/03/15 04:32:34;;;;;;;;;56.50;44.75;31.60;99.90;;;;;;5034166;28;8861;-61
2022/03/15 04:35:01;;;;;;;;;53.00;43.25;31.90;99.90;;;;;;5017691;28;8759;-62
2022/03/15 04:37:27;;;;;;;;;53.75;43.75;31.70;99.90;;;;;;5033768;28;8890;-64
2022/03/15 04:39:57;;;;;;;;;52.25;41.25;31.80;99.90;;;;;;5018700;28;8799;-61
2022/03/15 04:42:24;;;;;;;;;51.00;38.00;31.90;99.90;;;;;;5018828;28;8880;-61
2022/03/15 04:44:50;;;;;;;;;57.75;44.25;31.90;99.90;;;;;;5017235;28;8774;-59
2022/03/15 04:47:17;;;;;;;;;58.00;46.00;32.00;99.90;;;;;;5018823;28;8852;-61
2022/03/15 04:49:44;;;;;;;;;56.25;45.00;31.70;99.90;;;;;;5017358;28;8755;-62
2022/03/15 04:52:10;;;;;;;;;58.00;46.25;31.80;99.90;;;;;;5034279;28;8755;-63
2022/03/15 04:54:37;;;;;;;;;44.50;36.25;31.70;99.90;;;;;;5018575;28;8767;-62
2022/03/15 04:57:04;;;;;;;;;55.50;44.00;32.00;99.90;;;;;;5000712;28;8825;-63
2022/03/15 04:59:30;;;;;;;;;54.00;44.00;31.90;99.90;;;;;;5033576;28;8775;-61
2022/03/15 05:01:57;;;;;;;;;52.75;42.00;32.20;99.90;;;;;;5018677;28;9223;-62
2022/03/15 05:04:24;;;;;;;;;55.00;43.75;32.30;99.90;;;;;;5018607;28;8758;-62
2022/03/15 05:06:50;;;;;;;;;56.25;42.75;32.30;99.90;;;;;;5001332;28;11134;-63
2022/03/15 05:09:17;;;;;;;;;55.50;44.00;32.50;99.90;;;;;;5017416;28;8767;-66
2022/03/15 05:11:47;;;;;;;;;54.00;43.00;32.50;99.90;;;;;;5018431;28;8778;-63
2022/03/15 05:14:13;;;;;;;;;54.25;44.00;32.30;99.80;;;;;;5018027;28;8771;-63
2022/03/15 05:16:40;;;;;;;;;57.50;44.50;32.30;99.90;;;;;;5018305;28;8882;-64
2022/03/15 05:19:07;;;;;;;;;55.25;45.25;32.30;99.90;;;;;;5017554;28;8731;-66
2022/03/15 05:21:33;;;;;;;;;55.00;43.25;32.70;99.70;;;;;;5033232;28;8735;-64
2022/03/15 05:24:00;;;;;;;;;53.25;42.00;32.50;99.40;;;;;;5019055;28;8777;-64
2022/03/15 05:26:27;;;;;;;;;47.75;38.75;32.60;99.90;;;;;;5020409;28;8811;-64
2022/03/15 05:28:53;;;;;;;;;53.00;41.00;33.10;99.90;;;;;;5019712;28;8755;-64
2022/03/15 05:31:22;;;;;;;;;53.00;43.25;33.10;98.80;;;;;;5034335;28;8759;-65
2022/03/15 05:33:49;;;;;;;;;55.50;44.50;32.30;98.80;;;;;;5033703;28;8755;-66
2022/03/15 05:36:15;;;;;;;;;54.25;43.75;32.60;99.00;;;;;;5018354;28;8786;-66
2022/03/15 05:38:42;;;;;;;;;54.00;42.75;32.80;98.60;;;;;;5018869;28;8751;-66
2022/03/15 05:41:09;;;;;;;;;51.75;42.50;32.60;98.70;;;;;;5017391;28;8785;-66
2022/03/15 05:43:37;;;;;;;;;52.50;42.25;32.80;98.30;;;;;;5019908;28;8843;-65
2022/03/15 05:46:04;;;;;;;;;54.00;42.75;32.80;98.10;;;;;;5001309;28;8749;-66
2022/03/15 05:48:31;;;;;;;;;56.75;44.25;32.90;97.30;;;;;;5002873;28;8777;-67
2022/03/15 05:50:58;;;;;;;;;54.50;44.00;33.20;97.40;;;;;;5000409;28;8773;-65
2022/03/15 05:53:25;;;;;;;;;53.75;43.50;32.90;97.10;;;;;;4996710;28;8788;-67
2022/03/15 05:55:52;;;;;;;;;54.00;44.00;33.20;97.90;;;;;;4998130;28;8777;-66
2022/03/15 05:58:19;;;;;;;;;54.75;44.75;33.40;97.50;;;;;;5011564;28;8857;-67
2022/03/15 06:00:46;;;;;;;;;53.50;43.25;33.50;97.30;;;;;;5017515;28;8751;-67
2022/03/15 06:03:12;;;;;;;;;57.50;44.50;33.60;96.40;;;;;;5017502;28;8755;-66
2022/03/15 06:05:39;;;;;;;;;52.75;44.00;33.70;96.20;;;;;;5017262;28;8759;-67
2022/03/15 06:08:07;;;;;;;;;53.00;43.75;33.70;95.90;;;;;;5016898;28;8755;-65
2022/03/15 06:10:33;;;;;;;;;55.50;45.25;33.60;96.30;;;;;;5015141;28;8743;-64
2022/03/15 06:13:00;;;;;;;;;53.00;42.75;33.70;96.10;;;;;;5016481;28;8758;-64
2022/03/15 06:15:26;;;;;;;;;52.25;42.25;33.80;96.40;;;;;;5016126;28;8801;-64
2022/03/15 06:17:57;;;;;;;;;52.25;40.50;33.90;91.80;;;;;;5015953;28;8798;-64
2022/03/15 06:20:25;;;;;;;;;52.50;41.75;34.00;91.90;;;;;;5031131;28;8763;-64
2022/03/15 06:22:51;;;;;;;;;38.75;30.50;33.90;90.70;;;;;;5016215;28;8778;-64
2022/03/15 06:25:18;;;;;;;;;48.75;40.75;33.90;90.00;;;;;;5016817;28;8779;-64
2022/03/15 06:27:46;;;;;;;;;53.50;42.75;33.80;90.20;;;;;;5031568;28;8849;-64
2022/03/15 06:30:16;;;;;;;;;53.25;41.25;33.90;90.90;;;;;;5016748;28;8774;-65
2022/03/15 06:32:43;;;;;;;;;42.75;33.25;34.20;90.90;;;;;;5016471;28;8771;-64
2022/03/15 06:35:10;;;;;;;;;53.25;41.50;34.30;90.30;;;;;;5015715;28;8850;-64
2022/03/15 06:37:46;;;;;;;;;47.00;38.50;33.80;91.10;;;;;;5015591;28;8831;-65
2022/03/15 06:40:24;;;;;;;;;52.50;43.00;34.20;91.30;;;;;;5032595;28;8771;-64
2022/03/15 06:42:52;;;;;;;;;47.00;38.25;34.60;90.60;;;;;;5024673;28;8817;-64
2022/03/15 06:45:18;;;;;;;;;53.25;43.00;34.60;90.80;;;;;;4994835;28;8859;-64
2022/03/15 06:47:45;;;;;;;;;53.25;43.00;34.50;91.40;;;;;;4995960;28;8773;-65
2022/03/15 06:50:12;;;;;;;;;51.00;41.25;34.30;91.70;;;;;;4997036;28;8765;-64
2022/03/15 06:52:40;;;;;;;;;51.75;42.00;34.50;92.40;;;;;;4995793;28;8792;-64
2022/03/15 06:55:07;;;;;;;;;56.25;42.50;34.50;90.50;;;;;;4997389;28;8788;-64
2022/03/15 06:57:34;;;;;;;;;48.75;38.75;34.70;91.10;;;;;;4999244;28;8831;-65
2022/03/15 07:00:05;;;;;;;;;51.25;42.25;34.60;89.90;;;;;;5016772;28;8786;-64
2022/03/15 07:02:32;;;;;;;;;47.25;38.00;34.70;90.60;;;;;;5014920;28;8775;-65
2022/03/15 07:04:58;;;;;;;;;49.25;40.75;34.60;89.70;;;;;;5014586;28;8778;-64
2022/03/15 07:07:25;;;;;;;;;53.00;43.00;34.60;90.30;;;;;;5012557;28;8837;-64
2022/03/15 07:09:56;;;;;;;;;48.25;40.00;34.60;90.50;;;;;;5014508;28;8865;-64
2022/03/15 07:12:24;;;;;;;;;48.50;39.75;34.40;91.10;;;;;;5012203;28;8787;-65
2022/03/15 07:14:50;;;;;;;;;53.25;42.25;34.60;90.40;;;;;;5012640;28;8787;-64
2022/03/15 07:17:17;;;;;;;;;51.25;40.75;34.90;89.60;;;;;;5012337;28;8795;-64
2022/03/15 07:19:44;;;;;;;;;48.75;38.50;34.80;88.50;;;;;;5021584;28;8763;-64
2022/03/15 07:22:11;;;;;;;;;54.75;43.50;35.10;87.60;;;;;;5027106;28;8841;-64
2022/03/15 07:24:38;;;;;;;;;51.50;41.50;35.10;85.80;;;;;;5013996;28;10486;-64
2022/03/15 07:27:04;;;;;;;;;50.25;40.25;35.30;86.90;;;;;;5012457;28;8790;-64
2022/03/15 07:29:31;;;;;;;;;46.50;39.75;35.00;85.70;;;;;;5015184;28;8791;-64
2022/03/15 07:31:58;;;;;;;;;43.75;38.25;34.90;85.80;;;;;;5016021;28;8862;-64
2022/03/15 07:34:24;;;;;;;;;43.25;36.50;35.30;83.10;;;;;;5014817;28;9431;-64
2022/03/15 07:36:51;;;;;;;;;52.50;43.00;35.30;86.40;;;;;;5032366;28;8822;-64
2022/03/15 07:39:18;;;;;;;;;50.00;41.00;35.60;85.90;;;;;;5015795;28;9145;-64
2022/03/15 07:41:46;;;;;;;;;45.50;39.00;35.40;83.20;;;;;;5031816;28;8804;-64
2022/03/15 07:44:15;;;;;;;;;50.50;41.00;35.20;85.50;;;;;;5014755;28;8817;-64
2022/03/15 07:46:48;;;;;;;;;51.25;42.00;35.00;85.90;;;;;;5015707;28;9451;-64
2022/03/15 07:49:18;;;;;;;;;50.75;39.75;35.20;85.80;;;;;;5016389;28;8787;-64
2022/03/15 07:51:48;;;;;;;;;50.75;39.75;35.50;85.00;;;;;;5031590;28;8755;-64
2022/03/15 07:54:15;;;;;;;;;52.25;41.75;35.50;83.70;;;;;;5031252;28;9444;-64
2022/03/15 07:56:43;;;;;;;;;42.50;32.50;35.60;80.20;;;;;;5016059;28;8801;-64
2022/03/15 07:59:12;;;;;;;;;50.50;40.50;35.70;82.60;;;;;;5015302;28;8850;-64
2022/03/15 08:01:39;;;;;;;;;42.25;36.50;35.90;82.50;;;;;;5030557;28;8759;-64
2022/03/15 08:04:06;;;;;;;;;49.25;41.00;35.60;81.20;;;;;;5031762;28;8747;-65
2022/03/15 08:06:35;;;;;;;;;44.00;37.00;35.40;81.70;;;;;;5014712;28;8755;-64
2022/03/15 08:09:05;;;;;;;;;49.25;38.75;35.20;82.60;;;;;;5014264;28;8803;-65
2022/03/15 08:11:32;;;;;;;;;49.50;40.00;35.80;80.90;;;;;;5030168;28;8770;-64
2022/03/15 08:13:59;;;;;;;;;48.50;38.00;35.70;80.90;;;;;;5015309;28;8798;-65
2022/03/15 08:16:26;;;;;;;;;47.50;38.00;35.60;81.10;;;;;;5013757;28;9014;-65
2022/03/15 08:18:53;;;;;;;;;54.50;42.50;35.80;81.20;;;;;;5014980;28;8767;-64
2022/03/15 08:21:22;;;;;;;;;52.60;41.00;36.00;81.00;;;;;;5019122;28;8813;-66
2022/03/15 08:23:49;;;;;;;;;49.75;41.00;36.00;79.80;;;;;;5018149;28;8785;-62
2022/03/15 08:26:15;;;;;;;;;54.50;43.25;35.80;79.80;;;;;;5018047;28;8759;-63
2022/03/15 08:28:48;;;;;;;;;50.00;40.25;35.70;80.00;;;;;;5017359;28;8747;-66
2022/03/15 08:31:15;;;;;;;;;51.75;42.00;35.60;80.60;;;;;;5018128;28;8921;-65
2022/03/15 08:33:43;;;;;;;;;44.25;37.25;35.50;79.80;;;;;;5018586;28;8759;-64
2022/03/15 08:36:09;;;;;;;;;50.00;41.00;35.20;78.80;;;;;;5019465;28;8872;-64
2022/03/15 08:38:36;;;;;;;;;49.25;39.50;35.20;79.40;;;;;;5018697;28;8810;-65
2022/03/15 08:41:06;;;;;;;;;52.00;41.50;35.20;79.70;;;;;;5019410;28;8857;-64
2022/03/15 08:43:33;;;;;;;;;52.40;42.60;35.20;80.90;;;;;;5019048;28;8759;-64
2022/03/15 08:46:00;;;;;;;;;54.60;41.40;35.20;78.70;;;;;;5018246;28;8907;-65
2022/03/15 08:48:26;;;;;;;;;53.20;42.40;35.20;79.00;;;;;;5017971;28;8850;-64
2022/03/15 08:50:54;;;;;;;;;56.00;45.40;35.10;78.90;;;;;;5019025;28;9416;-64
2022/03/15 08:53:21;;;;;;;;;55.00;44.60;35.10;76.30;;;;;;5018607;28;8762;-64
2022/03/15 08:55:48;;;;;;;;;55.00;44.20;35.10;76.60;;;;;;5019249;28;8778;-64
2022/03/15 08:58:14;;;;;;;;;46.60;37.20;35.00;76.30;;;;;;5019478;28;8794;-64
2022/03/15 09:00:41;;;;;;;;;56.25;45.25;35.00;76.80;;;;;;5018779;28;8775;-64
2022/03/15 09:03:10;;;;;;;;;51.50;41.25;34.90;76.20;;;;;;5019001;28;8881;-64
2022/03/15 09:05:37;;;;;;;;;56.20;44.60;34.80;76.60;;;;;;5019140;28;8802;-64
2022/03/15 09:08:04;;;;;;;;;57.20;43.80;34.80;77.20;;;;;;5017837;28;8783;-64
2022/03/15 09:10:31;;;;;;;;;57.20;46.00;34.70;78.50;;;;;;5017254;28;8763;-64
2022/03/15 09:12:57;;;;;;;;;57.40;46.40;34.70;79.50;;;;;;5019246;28;8773;-64
2022/03/15 09:15:24;;;;;;;;;52.80;43.80;34.70;79.00;;;;;;5034103;28;8774;-64
2022/03/15 09:17:51;;;;;;;;;55.40;44.40;34.80;78.80;;;;;;5017246;28;8794;-64
2022/03/15 09:20:18;;;;;;;;;56.00;43.60;34.90;79.40;;;;;;5033242;28;8781;-63
2022/03/15 09:22:44;;;;;;;;;55.00;43.40;34.90;77.30;;;;;;5011054;28;8781;-64
2022/03/15 09:25:11;;;;;;;;;51.60;41.00;34.80;77.20;;;;;;5031220;28;8755;-65
2022/03/15 09:27:38;;;;;;;;;58.40;46.00;34.70;75.90;;;;;;5018061;28;9555;-65
2022/03/15 09:30:06;;;;;;;;;60.80;47.40;34.70;76.30;;;;;;5017878;28;8763;-65
2022/03/15 09:32:32;;;;;;;;;60.00;46.00;34.70;78.90;;;;;;5032611;28;9491;-64
2022/03/15 09:34:59;;;;;;;;;58.00;45.00;34.70;77.70;;;;;;5033746;28;9439;-65
2022/03/15 09:37:26;;;;;;;;;56.00;45.50;34.70;76.70;;;;;;5017446;28;8802;-64
2022/03/15 09:39:53;;;;;;;;;55.00;44.60;34.70;76.00;;;;;;5018708;28;8869;-65
2022/03/15 09:42:20;;;;;;;;;56.80;46.00;34.70;74.70;;;;;;5016545;28;8869;-64
2022/03/15 09:44:47;;;;;;;;;57.75;46.75;34.60;75.50;;;;;;5033438;28;8782;-65
2022/03/15 09:47:15;;;;;;;;;56.25;45.75;34.60;77.30;;;;;;5018141;28;8802;-65
2022/03/15 09:49:43;;;;;;;;;54.20;44.20;34.60;77.50;;;;;;5033136;28;8739;-65
2022/03/15 09:52:11;;;;;;;;;54.20;41.40;34.60;75.90;;;;;;5033978;28;8781;-65
2022/03/15 09:54:38;;;;;;;;;55.60;44.40;34.60;77.00;;;;;;5032645;28;8882;-65
2022/03/15 09:57:06;;;;;;;;;55.40;44.80;34.60;76.00;;;;;;5032963;28;8791;-65
2022/03/15 09:59:32;;;;;;;;;49.60;41.80;34.60;76.70;;;;;;5016176;28;8795;-64
2022/03/15 10:01:59;;;;;;;;;52.20;42.60;34.60;77.10;;;;;;5017980;28;8778;-65
2022/03/15 10:04:29;;;;;;;;;50.80;42.20;34.60;78.00;;;;;;5017590;28;8747;-64
2022/03/15 10:06:56;;;;;;;;;53.00;44.25;34.60;79.70;;;;;;5018306;28;8751;-65
2022/03/15 10:09:27;;;;;;;;;54.75;43.50;34.50;81.50;;;;;;5017504;28;8766;-64
2022/03/15 10:11:54;;;;;;;;;55.00;43.50;34.40;80.90;;;;;;5032640;28;8774;-65
2022/03/15 10:14:20;;;;;;;;;50.40;42.00;34.30;82.50;;;;;;5017249;28;8779;-64
2022/03/15 10:16:49;;;;;;;;;48.75;40.50;34.10;82.70;;;;;;5032798;28;8759;-64
2022/03/15 10:19:15;;;;;;;;;50.75;40.00;34.10;82.60;;;;;;5033273;28;8754;-65
2022/03/15 10:21:56;;;;;;;;;51.50;42.00;34.00;86.40;;;;;;5017494;28;8739;-65
2022/03/15 10:24:24;;;;;;;;;40.00;35.00;33.90;86.50;;;;;;5017066;28;8735;-65
2022/03/15 10:26:52;;;;;;;;;50.50;42.25;33.80;85.90;;;;;;5032514;28;8765;-65
2022/03/15 10:29:19;;;;;;;;;52.50;43.75;33.80;85.40;;;;;;5032084;28;8805;-63
2022/03/15 10:31:46;;;;;;;;;54.50;40.25;33.70;82.60;;;;;;5017665;28;8783;-65
2022/03/15 10:34:14;;;;;;;;;49.00;40.00;33.60;82.80;;;;;;5017871;28;8754;-65
2022/03/15 10:36:48;;;;;;;;;50.00;40.50;33.60;84.00;;;;;;5032269;28;8771;-64
2022/03/15 10:39:17;;;;;;;;;42.75;34.00;33.50;86.30;;;;;;5032181;28;8793;-64
2022/03/15 10:41:51;;;;;;;;;47.50;40.00;33.40;85.70;;;;;;5017298;28;8751;-64
2022/03/15 10:44:38;;;;;;;;;54.75;45.00;33.10;82.90;;;;;;5014821;28;8786;-63
2022/03/15 10:47:12;;;;;;;;;52.25;41.50;33.10;85.30;;;;;;5017179;28;8781;-64
2022/03/15 10:49:49;;;;;;;;;46.00;38.25;33.10;86.90;;;;;;5016972;28;8755;-64
2022/03/15 10:52:37;;;;;;;;;47.00;38.00;33.10;88.50;;;;;;5016137;28;8759;-64
2022/03/15 10:55:14;;;;;;;;;47.25;37.00;33.00;88.30;;;;;;5017493;28;8751;-65
2022/03/15 10:58:09;;;;;;;;;47.00;39.25;33.00;86.50;;;;;;5031820;28;9440;-65
2022/03/15 11:00:37;;;;;;;;;46.75;38.75;33.00;86.10;;;;;;5013773;28;8901;-65
2022/03/15 11:03:13;;;;;;;;;43.25;35.75;33.00;85.60;;;;;;5017103;28;8800;-65
2022/03/15 11:05:40;;;;;;;;;44.25;36.75;32.90;85.00;;;;;;5016800;28;8783;-64
2022/03/15 11:08:09;;;;;;;;;45.25;38.00;32.90;86.50;;;;;;5016461;28;9467;-65
2022/03/15 11:10:37;;;;;;;;;47.75;39.50;32.80;87.60;;;;;;5015170;28;8765;-64
2022/03/15 11:13:09;;;;;;;;;46.75;38.25;32.60;89.00;;;;;;5016061;28;8853;-65
2022/03/15 11:15:45;;;;;;;;;59.50;47.00;32.50;89.40;;;;;;5015269;28;8775;-65
2022/03/15 11:18:12;;;;;;;;;61.20;49.20;32.50;89.70;;;;;;5017028;28;9498;-65
2022/03/15 11:20:43;;;;;;;;;50.20;42.60;32.50;89.50;;;;;;5016795;28;8852;-64
2022/03/15 11:23:12;;;;;;;;;56.00;44.80;32.30;89.20;;;;;;5031801;28;8762;-65
2022/03/15 11:25:44;;;;;;;;;50.25;42.25;32.30;88.80;;;;;;5016309;28;9042;-64
2022/03/15 11:28:20;;;;;;;;;52.00;41.00;32.20;88.90;;;;;;5015831;28;8798;-66
2022/03/15 11:30:50;;;;;;;;;44.00;36.75;32.10;89.30;;;;;;5031637;28;8814;-64
2022/03/15 11:33:17;;;;;;;;;54.25;43.25;32.00;89.30;;;;;;5031487;28;9458;-64
2022/03/15 11:35:44;;;;;;;;;47.75;39.75;32.00;89.50;;;;;;5016599;28;8755;-64
2022/03/15 11:38:13;;;;;;;;;49.50;41.00;32.00;89.50;;;;;;5031528;28;8767;-64
2022/03/15 11:40:40;;;;;;;;;45.50;36.50;31.80;90.00;;;;;;5016312;28;8731;-64
2022/03/15 11:43:34;;;;;;;;;48.75;39.00;31.70;90.00;;;;;;5015907;28;8786;-64
2022/03/15 11:46:22;;;;;;;;;47.75;39.25;31.70;90.10;;;;;;5031202;28;8877;-64
2022/03/15 11:49:15;;;;;;;;;47.50;38.00;31.60;89.90;;;;;;5015452;28;8775;-64
2022/03/15 11:52:01;;;;;;;;;54.75;42.50;31.50;90.20;;;;;;5015152;28;8762;-64
2022/03/15 11:54:40;;;;;;;;;49.50;41.00;31.40;90.70;;;;;;5017802;28;8836;-63
2022/03/15 11:57:17;;;;;;;;;52.50;39.25;31.20;91.10;;;;;;5019036;28;8783;-64
2022/03/15 11:59:53;;;;;;;;;50.25;42.00;31.20;91.20;;;;;;5035355;28;8763;-64
2022/03/15 12:02:27;;;;;;;;;42.75;34.75;31.20;90.70;;;;;;5020099;28;8758;-63
2022/03/15 12:04:54;;;;;;;;;51.25;42.75;31.20;91.00;;;;;;5020276;28;8783;-64
2022/03/15 12:07:45;;;;;;;;;51.00;41.75;31.20;91.10;;;;;;5035205;28;8775;-63
2022/03/15 12:10:32;;;;;;;;;49.60;42.00;31.10;91.20;;;;;;5035659;28;8751;-64
2022/03/15 12:13:03;;;;;;;;;43.25;36.75;31.00;91.50;;;;;;5015997;28;8791;-64
2022/03/15 12:15:40;;;;;;;;;53.25;43.25;31.00;91.70;;;;;;5020007;28;8751;-64
2022/03/15 12:18:23;;;;;;;;;60.40;47.20;30.90;91.80;;;;;;5020004;28;8755;-64
2022/03/15 12:21:14;;;;;;;;;59.40;47.00;30.90;91.80;;;;;;5020168;28;8767;-64
2022/03/15 12:23:44;;;;;;;;;57.40;45.60;30.90;91.90;;;;;;5020305;28;8771;-64
2022/03/15 12:26:24;;;;;;;;;57.00;46.20;30.80;91.90;;;;;;5018221;28;8822;-64
2022/03/15 12:29:04;;;;;;;;;57.75;45.50;30.70;92.30;;;;;;5019909;28;8767;-63
2022/03/15 12:31:40;;;;;;;;;55.00;43.00;30.70;92.50;;;;;;5019684;28;8762;-63
2022/03/15 12:34:11;;;;;;;;;54.00;43.75;30.60;92.30;;;;;;5020613;28;8754;-64
2022/03/15 12:36:38;;;;;;;;;52.00;39.75;30.40;92.30;;;;;;5019573;28;8823;-63
2022/03/15 12:39:12;;;;;;;;;50.00;39.00;30.40;90.90;;;;;;5034317;28;8868;-64
2022/03/15 12:41:39;;;;;;;;;47.25;39.50;30.40;90.80;;;;;;5034850;28;8798;-64